ESSA/ARN METAR and TAF weather

Enter ICAO airport designator
Station Type Date Time Source
ESSA METAR 2018/12/10 23:50 UTC NOAA

ESSA 102350Z 01012KT 9999 BKN007 03/02 Q1005 R01L/19//95 R08/19//95 R01R/19//95 TEMPO 2000 -SNRA BKN005


Station Type Date Time Source
ESSA Decoded METAR 2018/12/10 23:50 UTC NOAA

Stockholm / Arlanda, Sweden (ESSA) 59-39N 017-57E 61M
Dec 10, 2018 - 06:50 PM EST / 2018.12.10 2350 UTC
Wind: from the N (010 degrees) at 14 MPH (12 KT):0
Visibility: greater than 7 mile(s):0
Sky conditions: mostly cloudy
Temperature: 37 F (3 C)
Dew Point: 35 F (2 C)
Relative Humidity: 93%
Pressure (altimeter): 29.68 in. Hg (1005 hPa)
ob: ESSA 102350Z 01012KT 9999 BKN007 03/02 Q1005 R01L/19//95 R08/19//95 R01R/19//95 TEMPO 2000 -SNRA BKN005
cycle: 0

Station Type Date Time Source
ESSA TAF 2018/12/10 18:33 UTC NOAA

TAF ESSA 101730Z 1018/1118 33006KT 9999 BKN006
TEMPO 1018/1020 2000 RASN BR VV003 PROB40 1020/1106 3000 -RA BR BKN004 PROB40 1106/1112 BKN015


Example: see airport list